Lac Courte Oreilles Indian R, Wisconsin
Current Conditions -  °F | °C
As of 3:53 AM on Thursday 23 Oct 2014 (Local Time) from KASX Reporting Station
Overcast Overcast  
Wind Chill: 50°   Ceiling: 9500
Heat Index: 50°   Visibility: 10mi
Dew Point: 41°   Wind: 9mph
Humidity: 71%   Direction: 200°SSW
Pressure: 30.02"   Gusts: NA
Location:  46.543°N, 90.8706°W
Report Text: KASX 230853Z AUTO 20008KT 10SM OVC095 10/05 A3002 RMK AO2 SLP168 60001 T01000050 58011
Loading
Personal Weather Stations






























Interactive Weather Map
Tropical Storm Tracking
New forecast layout! Learn more

10-Day Weather Forecast

Advertisements
Track Severe Weather on mobile